• Join FlightAware (Why Join?)
  • Login
  • US Flag 
01:44AM EDT


 

Airport Tracker/Info


-or-


 

Live Flight TrackerFlight Track Log ✈ ASQ4492 ✈ 05-Apr-2013 ✈ KMSN - KEWR

Flight Track Log - Related Links

Times and Time Zones

All times are in EDT time to prevent confusion due to time zone crossing. See the ASQ4492 flight status page for this flight to view local times or setup timezone preferences in your user account.

Time Position Orientation Groundspeed Altitude Reporting Facility
EDT Latitude Longitude Course Direction KTS MPH feet Rate Location/Type
07:35PM 43.1283 -89.2231 67° East 241 277 5,100  Level Chicago Center
07:37PM 43.1542 -89.1247 70° East 262 302 7,700 2,400 Climbing Chicago Center
07:38PM 43.1550 -89.0158 89° East 286 329 10,200 1,980 Climbing Chicago Center
07:39PM 43.1167 -88.3858 90° East  Level FlightAware Approximate
07:39PM 43.1483 -88.8731 94° East 318 366 11,900  Level Chicago Center
07:40PM 43.1000 -88.2335 90° East  Level FlightAware Approximate
07:40PM 43.1406 -88.7356 94° East 359 413 13,400  Level Chicago Center
07:41PM 43.1331 -88.5878 94° East 388 447 14,900 1,200 Climbing Chicago Center
07:42PM 43.1244 -88.4322 94° East 413 475 16,000 1,080 Climbing Chicago Center
07:43PM 43.1128 -88.2456 95° East 426 490 17,200 900 Climbing Chicago Center
07:44PM 43.0953 -88.0806 98° East 436 502 17,900 780 Climbing Chicago Center
07:45PM 43.0761 -87.9128 99° East 444 511 18,900 960 Climbing Chicago Center
07:46PM 43.0575 -87.7411 98° East 454 522 19,900 960 Climbing Chicago Center
07:47PM 43.0381 -87.5678 99° East 461 531 20,900 1,020 Climbing Chicago Center
07:48PM 43.0147 -87.3639 99° East 465 535 22,100 1,200 Climbing Chicago Center
07:49PM 42.9994 -87.2156 98° East 466 536 23,400 1,500 Climbing Chicago Center
07:50PM 42.9767 -87.0150 99° East 450 518 25,300 1,380 Climbing Chicago Center
07:51PM 42.9564 -86.8464 99° East 450 518 26,300 960 Climbing Chicago Center
07:52PM 42.9358 -86.6761 99° East 456 525 27,300 960 Climbing Chicago Center
07:53PM 42.9139 -86.5036 100° East 464 534 28,300 960 Climbing Chicago Center
07:54PM 42.8928 -86.3325 100° East 463 533 29,300 1,020 Climbing Chicago Center
07:55PM 42.8672 -86.1250 99° East 469 540 30,500 1,020 Climbing Chicago Center
07:56PM 42.8447 -85.9508 100° East 476 548 31,500 960 Climbing Chicago Center
07:57PM 42.8222 -85.7739 100° East 482 555 32,500 960 Climbing Chicago Center
07:58PM 42.7997 -85.5928 100° East 488 562 33,500 960 Climbing Chicago Center
07:59PM 42.7589 -85.4144 107° East 501 577 34,500 720 Climbing Chicago Center
08:00PM 42.6864 -85.2108 116° Southeast 501 577 35,000 240 Climbing Chicago Center
08:01PM 42.6236 -85.0339 116° Southeast 519 597 35,000  Level Chicago Center
08:02PM 42.5614 -84.8581 116° Southeast 519 597 35,000  Level Chicago Center
08:03PM 42.4994 -84.6844 116° Southeast 515 593 35,000  Level Chicago Center
08:04PM 42.4367 -84.5119 116° Southeast 514 592 35,000  Level Chicago Center
08:05PM 42.3744 -84.3386 116° Southeast 516 594 35,000  Level Chicago Center
08:06PM 42.2981 -84.1278 116° Southeast 523 602 35,000  Level Chicago Center
08:08PM 42.2256 -83.9397 117° Southeast 520 598 35,000  Level Cleveland Center
08:09PM 42.1597 -83.7681 117° Southeast 520 598 35,000  Level Cleveland Center
08:10PM 42.0975 -83.5944 116° Southeast 520 598 35,000  Level Cleveland Center
08:11PM 42.0475 -83.4353 113° Southeast 520 598 35,000  Level Cleveland Center
08:12PM 42.0294 -83.2361 97° East 503 579 35,000  Level Cleveland Center
08:13PM 42.0144 -83.0564 96° East 490 564 35,000  Level Cleveland Center
08:14PM 42.0036 -82.8883 95° East 484 557 35,000  Level Cleveland Center
08:15PM 41.9903 -82.7092 96° East 484 557 35,000  Level Cleveland Center
08:16PM 41.9747 -82.5242 96° East 484 557 35,000  Level Cleveland Center
08:17PM 41.9589 -82.3422 97° East 484 557 35,000  Level Cleveland Center
08:18PM 41.9428 -82.1603 97° East 484 557 35,000  Level Cleveland Center
08:19PM 41.9267 -81.9564 96° East 489 563 35,000  Level Cleveland Center
08:20PM 41.9119 -81.7886 97° East 496 571 35,000  Level Cleveland Center
08:21PM 41.8950 -81.6042 97° East 501 577 35,000  Level Cleveland Center
08:22PM 41.8797 -81.4169 96° East 501 577 35,000  Level Cleveland Center
08:23PM 41.8622 -81.2328 97° East 501 577 35,000  Level Cleveland Center
08:24PM 41.8425 -81.0319 97° East 501 577 35,000  Level Cleveland Center
08:25PM 41.8264 -80.8478 97° East 496 571 35,000  Level Cleveland Center
08:26PM 41.8078 -80.6667 98° East 496 571 35,000  Level Cleveland Center
08:27PM 41.7889 -80.4772 98° East 503 579 35,000  Level Cleveland Center
08:28PM 41.7719 -80.2936 97° East 504 580 35,000  Level Cleveland Center
08:29PM 41.7528 -80.1100 98° East 499 574 35,000  Level Cleveland Center
08:30PM 41.7350 -79.9292 97° East 499 574 35,000  Level Cleveland Center
08:31PM 41.7153 -79.7597 99° East 504 580 35,000  Level Cleveland Center
08:32PM 41.6972 -79.5792 98° East 498 573 35,000  Level Cleveland Center
08:33PM 41.6767 -79.3961 98° East 498 573 35,000  Level Cleveland Center
08:34PM 41.6556 -79.1936 98° East 503 579 35,000  Level Cleveland Center
08:35PM 41.6369 -79.0300 99° East 503 579 35,000 -240 Level Cleveland Center
08:36PM 41.6175 -78.8500 98° East 503 579 34,600 -600 Descending Cleveland Center
08:37PM 41.5958 -78.6672 99° East 498 573 33,900 -780 Descending Cleveland Center
08:38PM 41.5619 -78.3653 98° East 520 598 32,600 -780 Descending New York Center
08:39PM 41.5400 -78.1825 99° East 515 593 31,900 -780 Descending New York Center
08:40PM 41.5164 -77.9942 99° East 508 585 31,100 -480 Descending New York Center
08:41PM 41.4900 -77.8086 101° East 508 585 31,000 -60 Descending New York Center
08:42PM 41.4636 -77.6175 100° East 508 585 31,000 -60 Level New York Center
08:43PM 41.4325 -77.4289 102° East 513 590 30,900 -1,020 Descending New York Center
08:44PM 41.3894 -77.2281 106° East 508 585 29,000 -1,860 Descending New York Center
08:45PM 41.3514 -77.0447 105° East 508 585 27,200 -1,920 Descending New York Center
08:46PM 41.3133 -76.8589 105° East 513 590 25,300 -1,800 Descending New York Center
08:47PM 41.2764 -76.6789 105° East 513 590 23,600 -1,740 Descending New York Center
08:48PM 41.2375 -76.4989 106° East 508 585 21,900 -1,680 Descending New York Center
08:49PM 41.2053 -76.3417 105° East 502 578 20,300 -1,620 Descending New York Center
08:50PM 41.1694 -76.1706 105° East 486 559 18,700 -1,560 Descending New York Center
08:51PM 41.1258 -75.9853 107° East 480 552 17,200 -1,380 Descending New York Center
08:52PM 41.0806 -75.8247 110° East 475 547 15,900 -1,320 Descending New York Center
08:53PM 41.0392 -75.6678 109° East 463 533 14,600 -1,440 Descending New York Center
08:54PM 40.9989 -75.5328 112° Southeast 445 512 13,100 -960 Descending New York Center
08:55PM 40.9553 -75.3758 110° East 421 484 12,700 -1,080 Descending New York Center
08:56PM 40.9203 -75.2500 110° East 383 441 11,000 -1,740 Descending New York Center
08:57PM 40.8931 -75.1494 110° East 336 387 9,300 -1,680 Descending New York Center
08:58PM 40.8614 -75.0458 112° Southeast 311 358 7,800 -1,200 Descending New York Center
08:59PM 40.8300 -74.9314 110° East 297 342 7,000 -420 Descending New York Center
09:00PM 40.8233 -74.8267 95° East 297 342 7,000  Level New York Center
09:01PM 40.8492 -74.7350 70° East 281 323 7,000 -240 Level New York Center
09:02PM 40.8667 -74.6167 79° East 299 344 6,600 -540 Descending New York TRACON
09:03PM 40.8167 -74.5500 135° Southeast 290 334 6,000 -480 Descending New York TRACON
09:04PM 40.7333 -74.5000 156° South 276 318 5,600 -480 Descending New York TRACON
09:05PM 40.6667 -74.4833 169° South 275 316 5,000 -360 Descending New York TRACON
09:06PM 40.6000 -74.4500 159° South 235 270 5,000  Level New York TRACON
09:07PM 40.5333 -74.4333 169° South 219 252 5,000  Level New York TRACON
09:08PM 40.4833 -74.4000 153° Southeast 219 252 5,000 -480 Level New York TRACON
09:09PM 40.4500 -74.3500 131° Southeast 219 252 4,100 -900 Descending New York TRACON
09:10PM 40.4833 -74.3000 49° Northeast 185 213 3,200 -540 Descending New York TRACON
09:11PM 40.5333 -74.2667 27° Northeast 150 173 3,000 -300 Descending New York TRACON
09:12PM 40.5667 -74.2500 21° North 159 183 2,700 -660 Descending New York TRACON
09:13PM 40.6000 -74.2167 37° Northeast 147 169 1,800 -960 Descending New York TRACON